Hovedside
METAR-TAF:

METAR-TAF

Lufthavner :

Oslo lufthavn (Gardermoen)

Oslo, Norge

breddegrad: 60-12N, lengdegrad: 011-05E, høyde over havet: 208 m

Gjeldene værobservasjon

Denne rapporten ble laget for 20 minutter siden, klokken 15:20 UTC
Vind 12 kt fra Sør
Temperatur 24°C
Luftfuktighet 27%
Trykk 1017 hPa
Sikt 10 km eller mer
ingen skyer under 1500 m og ingen bygeskyer

METAR: ENGM 241520Z 17012KT CAVOK 24/04 Q1017 NOSIG

Tid: 17:40 (15:40 UTC)

Varsel

Denne rapporten ble laget for 4 timer og 40 minutter siden, klokken 11:00 UTC
Varsel gyldig fra 24. klokken 12 UTC til 25. klokken 12 UTC
Vind 8 kt fra Sør-sørvest
Sikt 10 km eller mer
ingen skyer under 1500 m og ingen bygeskyer

TAF: ENGM 241100Z 2412/2512 20008KT CAVOK

Værobservasjoner og værvarsel for over 4000 flyplasser (METAR- og TAF-rapporter).

Tilgjengelige stasjoner er representert av de røde og gule prikkene på kartet.

Hold musepekeren over prikken for å se navnet på stasjonen.

Klikk så for å se værobservasjoner og -varsler.

For å forandre kartet kan du klikke på den grønne knappen med svart kryss for å zoome inn, på den grønne knappen med strek for å zoome ut, eller på de grønne pilene for å se tilstøtende kart.


METAR-TAF: